Terminal Aerodrome Forecast
Issued by NWS

Home | Current Version | Previous Version | Text Only | Print | Product List | Glossary On
Versions: 1 2 3 4 5 6 7 8 9 10 11 12 13 14 15 16 17
000
FTAK31 PAFA 231738
TAFASC
TAF
PASC 231738Z 2318/2418 36004KT 3/4SM BR OVC004
      TEMPO 2319/2323 2SM BR OVC007
     FM232300 08008KT 2SM BR OVC007=

USA.gov is the U.S. government's official web portal to all federal, state and local government web resources and services.